Terminal Aerodrome Forecast
Issued by NWS

Home | Current Version | Previous Version | Text Only | Print | Product List | Glossary On
Versions: 1 2 3 4 5 6 7 8 9 10 11 12 13 14 15 16 17
000
FTUS44 KBMX 201700 RRA
TAFEET
TAF
KEET 201748Z 2018/2118 36003KT P6SM OVC025
     FM202200 36005KT P6SM BKN030
     FM210300 35004KT P6SM BKN035
     FM211600 01002KT 5SM BR SCT008 BKN040=

USA.gov is the U.S. government's official web portal to all federal, state and local government web resources and services.